Time;durP1;ratioP1;P1;durP2;ratioP2;P2;SDS_P1;SDS_P2;PMS_P1;PMS_P2;Temp;Humidity;BMP_temperature;BMP_pressure;BME280_temperature;BME280_humidity;BME280_pressure;Samples;Min_cycle;Max_cycle;Signal;HPM_P1;HPM_P2
2022/08/04 00:01:17;;;;;;;19.80;9.43;;;;;;;19.48;61.98;99531.63;5057665;28;20048;-62
2022/08/04 00:03:52;;;;;;;21.40;10.10;;;;;;;19.47;62.07;99537.28;5051306;28;20506;-61
2022/08/04 00:06:42;;;;;;;18.75;10.10;;;;;;;19.49;61.67;99533.22;5052041;28;20044;-61
2022/08/04 00:09:15;;;;;;;13.32;10.85;;;;;;;19.54;61.78;99526.16;5051802;28;20053;-62
2022/08/04 00:11:45;;;;;;;20.30;11.02;;;;;;;19.58;61.35;99537.94;5033999;28;20078;-62
2022/08/04 00:14:15;;;;;;;18.40;10.50;;;;;;;19.59;61.71;99537.66;5051491;28;20063;-62
2022/08/04 00:16:42;;;;;;;23.40;11.18;;;;;;;19.59;62.41;99536.81;5049725;28;20406;-62
2022/08/04 00:19:16;;;;;;;26.15;11.88;;;;;;;19.62;62.31;99537.06;5051427;28;20429;-62
2022/08/04 00:21:47;;;;;;;23.98;11.98;;;;;;;19.63;62.11;99533.28;5051554;28;20350;-61
2022/08/04 00:24:13;;;;;;;31.50;11.63;;;;;;;19.63;62.51;99533.28;5033778;28;20418;-61
2022/08/04 00:26:40;;;;;;;15.38;11.48;;;;;;;19.61;61.95;99531.97;5033775;28;20037;-61
2022/08/04 00:29:06;;;;;;;33.50;12.13;;;;;;;19.59;61.96;99540.34;5051691;28;20045;-61
2022/08/04 00:31:32;;;;;;;37.40;11.82;;;;;;;19.54;63.40;99547.69;5050092;28;20070;-61
2022/08/04 00:33:59;;;;;;;27.45;12.10;;;;;;;19.47;63.25;99538.09;5066013;28;20045;-60
2022/08/04 00:36:25;;;;;;;33.08;11.43;;;;;;;19.46;63.57;99541.06;5049478;28;20048;-61
2022/08/04 00:38:52;;;;;;;24.90;10.40;;;;;;;19.43;63.29;99539.75;5049809;28;20048;-62
2022/08/04 00:41:52;;;;;;;24.02;10.40;;;;;;;19.43;62.59;99538.97;5051528;28;20086;-62
2022/08/04 00:44:46;;;;;;;17.35;9.80;;;;;;;19.45;61.82;99542.97;5000399;28;20057;-62
2022/08/04 00:47:29;;;;;;;19.67;10.63;;;;;;;19.48;61.60;99547.75;5032850;28;20147;-62
2022/08/04 00:50:05;;;;;;;18.90;9.82;;;;;;;19.50;61.13;99544.75;5033319;28;20049;-62
2022/08/04 00:52:46;;;;;;;22.00;10.60;;;;;;;19.54;61.63;99553.06;5064261;28;20072;-62
2022/08/04 00:55:26;;;;;;;19.08;10.27;;;;;;;19.55;61.63;99552.75;5070852;28;20057;-61
2022/08/04 00:58:13;;;;;;;17.77;10.57;;;;;;;19.53;61.18;99557.63;5052046;28;20206;-61
2022/08/04 01:00:51;;;;;;;12.23;9.60;;;;;;;19.50;61.50;99561.72;5053651;28;20044;-62
2022/08/04 01:03:46;;;;;;;12.77;10.07;;;;;;;19.45;61.81;99556.41;5053508;28;20052;-62
2022/08/04 01:06:57;;;;;;;12.80;9.52;;;;;;;19.41;62.46;99563.47;5051303;28;20102;-62
2022/08/04 01:09:51;;;;;;;21.63;9.73;;;;;;;19.39;62.35;99560.25;5009322;28;20079;-64
2022/08/04 01:12:31;;;;;;;16.08;10.15;;;;;;;19.36;62.28;99563.53;5070972;28;20044;-61
2022/08/04 01:15:12;;;;;;;17.75;10.18;;;;;;;19.33;62.31;99561.41;5070220;28;20139;-61
2022/08/04 01:18:00;;;;;;;11.90;9.48;;;;;;;19.31;62.59;99568.97;5067685;28;20040;-63
2022/08/04 01:20:33;;;;;;;15.82;9.90;;;;;;;19.30;62.44;99567.38;5070972;28;20051;-62
2022/08/04 01:23:05;;;;;;;15.30;9.70;;;;;;;19.28;62.56;99564.19;5053398;28;20044;-62
2022/08/04 01:26:18;;;;;;;24.88;11.77;;;;;;;19.25;62.81;99565.56;5070731;28;20048;-62
2022/08/04 01:29:04;;;;;;;21.02;10.55;;;;;;;19.22;63.20;99568.03;5064405;28;20094;-63
2022/08/04 01:31:55;;;;;;;22.27;10.30;;;;;;;19.19;63.36;99576.66;5052927;28;20048;-61
2022/08/04 01:34:22;;;;;;;16.33;9.65;;;;;;;19.13;63.61;99573.25;5052389;28;20102;-62
2022/08/04 01:37:02;;;;;;;16.40;10.32;;;;;;;19.10;63.43;99575.72;5069227;28;20053;-62
2022/08/04 01:39:44;;;;;;;17.42;10.20;;;;;;;19.08;63.42;99575.19;5035899;28;20416;-60
2022/08/04 01:42:11;;;;;;;16.92;10.27;;;;;;;19.04;63.50;99578.47;5069856;28;20066;-63
2022/08/04 01:44:39;;;;;;;18.13;11.00;;;;;;;19.03;63.64;99584.94;5019676;28;20044;-62
2022/08/04 01:47:07;;;;;;;18.70;10.13;;;;;;;19.05;63.65;99576.56;5070627;28;20107;-62
2022/08/04 01:49:34;;;;;;;14.57;10.55;;;;;;;19.06;63.40;99578.19;5036412;28;20040;-61
2022/08/04 01:52:01;;;;;;;12.57;10.02;;;;;;;19.08;63.52;99572.50;5053127;28;20454;-62
2022/08/04 01:54:29;;;;;;;20.17;11.00;;;;;;;19.12;63.19;99579.72;5070692;28;20044;-62
2022/08/04 01:56:56;;;;;;;15.82;9.90;;;;;;;19.20;62.50;99580.94;5052075;28;20432;-62
2022/08/04 01:59:22;;;;;;;15.13;10.63;;;;;;;19.26;62.70;99587.84;5052865;28;20131;-62
2022/08/04 02:01:48;;;;;;;12.93;10.38;;;;;;;19.25;62.18;99576.31;5054512;28;20037;-62
2022/08/04 02:04:17;;;;;;;15.68;10.07;;;;;;;19.19;62.79;99573.97;5073715;28;20047;-60
2022/08/04 02:07:04;;;;;;;16.52;10.55;;;;;;;19.13;63.20;99581.31;5037778;28;20033;-63
2022/08/04 02:09:38;;;;;;;16.33;10.55;;;;;;;19.05;63.67;99588.13;5074031;28;20055;-62
2022/08/04 02:12:12;;;;;;;17.38;10.75;;;;;;;18.98;64.04;99576.13;5074150;28;20067;-62
2022/08/04 02:15:15;;;;;;;15.40;10.82;;;;;;;18.94;64.18;99586.66;5059168;28;20426;-62
2022/08/04 02:18:01;;;;;;;24.02;11.68;;;;;;;18.95;64.27;99584.78;5055514;28;20040;-62
2022/08/04 02:20:38;;;;;;;17.05;11.07;;;;;;;18.95;63.83;99582.88;5055813;28;20482;-62
2022/08/04 02:23:13;;;;;;;18.33;10.85;;;;;;;19.00;63.53;99584.69;5072409;28;20040;-62
2022/08/04 02:25:45;;;;;;;15.43;11.32;;;;;;;19.02;63.42;99586.00;5060657;28;20506;-62
2022/08/04 02:28:37;;;;;;;20.65;11.13;;;;;;;19.11;63.03;99580.00;5053503;28;20053;-61
2022/08/04 02:31:22;;;;;;;17.50;11.15;;;;;;;19.29;62.70;99588.09;5035674;28;20063;-62
2022/08/04 02:34:11;;;;;;;23.35;10.82;;;;;;;19.51;61.76;99582.13;5035985;28;20445;-62
2022/08/04 02:36:39;;;;;;;15.18;10.98;;;;;;;19.61;61.31;99583.84;5030315;28;20053;-62
2022/08/04 02:39:07;;;;;;;12.38;10.25;;;;;;;19.60;61.29;99584.16;5072027;28;20048;-62
2022/08/04 02:41:34;;;;;;;17.33;10.65;;;;;;;19.60;61.50;99586.84;5073593;28;20068;-62
2022/08/04 02:44:05;;;;;;;14.90;10.82;;;;;;;19.68;61.47;99591.59;5072974;28;20525;-61
2022/08/04 02:46:32;;;;;;;18.45;10.85;;;;;;;19.80;61.02;99591.94;5032017;28;20044;-63
2022/08/04 02:49:01;;;;;;;17.65;11.00;;;;;;;19.92;60.76;99589.59;5032894;28;20427;-62
2022/08/04 02:51:33;;;;;;;19.20;10.95;;;;;;;20.02;60.18;99585.91;5032901;28;20044;-62
2022/08/04 02:54:02;;;;;;;15.48;10.80;;;;;;;20.15;59.85;99592.44;5033049;28;20061;-63
2022/08/04 02:56:30;;;;;;;16.52;11.57;;;;;;;20.29;59.19;99592.44;5043717;28;20053;-62
2022/08/04 02:59:01;;;;;;;17.60;10.65;;;;;;;20.41;58.86;99595.44;5052875;28;20052;-62
2022/08/04 03:01:27;;;;;;;15.77;10.80;;;;;;;20.53;58.44;99597.69;5053016;28;20048;-63
2022/08/04 03:04:16;;;;;;;18.40;11.38;;;;;;;20.66;58.10;99593.44;5034921;28;20044;-62
2022/08/04 03:07:11;;;;;;;23.85;11.80;;;;;;;20.78;57.96;99599.09;5032900;28;20403;-63
2022/08/04 03:09:55;;;;;;;20.58;11.82;;;;;;;21.02;57.13;99604.28;5033153;28;20064;-62
2022/08/04 03:12:30;;;;;;;20.67;12.20;;;;;;;21.15;56.68;99598.09;5032819;28;20410;-62
2022/08/04 03:15:29;;;;;;;23.05;12.02;;;;;;;21.24;56.37;99604.34;5032493;28;20495;-61
2022/08/04 03:18:13;;;;;;;23.35;12.52;;;;;;;21.36;55.96;99601.16;5014960;28;20037;-61
2022/08/04 03:20:42;;;;;;;17.77;12.05;;;;;;;21.38;55.73;99598.94;5033065;28;20041;-63
2022/08/04 03:23:35;;;;;;;20.77;12.52;;;;;;;21.42;55.72;99607.25;5014743;28;20042;-62
2022/08/04 03:26:39;;;;;;;23.25;12.77;;;;;;;21.53;55.46;99611.28;5051361;28;20045;-64
2022/08/04 03:29:23;;;;;;;22.95;12.98;;;;;;;21.67;55.36;99616.63;5001746;28;20490;-63
2022/08/04 03:32:14;;;;;;;29.05;13.48;;;;;;;21.68;55.04;99618.25;5052755;28;20132;-63
2022/08/04 03:34:39;;;;;;;23.00;13.18;;;;;;;21.74;55.02;99628.63;5052391;28;20150;-62
2022/08/04 03:37:26;;;;;;;23.17;13.00;;;;;;;21.78;54.83;99623.41;5052314;28;20088;-62
2022/08/04 03:40:45;;;;;;;28.40;13.60;;;;;;;21.73;55.26;99621.59;5052492;28;20053;-63
2022/08/04 03:43:22;;;;;;;31.35;14.82;;;;;;;21.76;54.87;99626.38;4977913;28;20190;-62
2022/08/04 03:46:06;;;;;;;34.33;14.52;;;;;;;21.83;55.16;99627.88;5069699;28;20058;-63
2022/08/04 03:48:38;;;;;;;25.90;13.40;;;;;;;21.95;54.80;99634.31;5071594;28;20056;-63
2022/08/04 03:54:37;;;;;;;29.20;14.05;;;;;;;22.30;53.89;99641.88;5071763;28;20124;-62
2022/08/04 03:57:21;;;;;;;28.75;14.43;;;;;;;22.50;53.09;99632.44;5071181;28;20037;-62
2022/08/04 04:00:07;;;;;;;30.48;14.57;;;;;;;22.62;52.69;99632.69;5071494;28;20068;-63
2022/08/04 04:03:17;;;;;;;24.80;14.15;;;;;;;22.71;52.87;99647.00;5055317;28;20040;-62
2022/08/04 04:06:02;;;;;;;29.70;14.95;;;;;;;22.84;52.63;99645.31;5002736;28;20049;-63
2022/08/04 04:08:44;;;;;;;24.65;14.63;;;;;;;22.96;51.97;99650.94;5051942;28;20430;-62
2022/08/04 04:11:51;;;;;;;23.52;14.15;;;;;;;23.21;51.72;99646.72;5051795;28;20471;-63
2022/08/04 04:14:42;;;;;;;21.38;15.00;;;;;;;23.31;51.07;99645.63;4986819;28;20064;-63
2022/08/04 04:17:26;;;;;;;25.48;14.45;;;;;;;23.52;50.64;99654.72;5069216;28;20040;-62
2022/08/04 04:20:20;;;;;;;26.75;14.95;;;;;;;23.69;50.49;99658.56;5071869;28;20064;-62
2022/08/04 04:22:52;;;;;;;22.67;14.73;;;;;;;23.94;49.67;99651.56;5071770;28;20044;-63
2022/08/04 04:25:40;;;;;;;23.95;14.13;;;;;;;24.13;49.32;99653.94;5070750;28;20059;-63
2022/08/04 04:28:11;;;;;;;23.20;14.57;;;;;;;24.28;48.46;99658.84;5059982;28;20063;-63
2022/08/04 04:30:48;;;;;;;27.58;14.02;;;;;;;24.38;48.77;99657.69;5071662;28;20048;-62
2022/08/04 04:33:41;;;;;;;20.33;12.93;;;;;;;24.54;48.64;99669.66;5036828;28;20048;-63
2022/08/04 04:36:34;;;;;;;26.30;13.65;;;;;;;24.73;48.06;99668.47;5043724;28;20048;-62
2022/08/04 04:39:23;;;;;;;26.63;13.95;;;;;;;24.90;47.47;99669.19;5009960;28;20061;-62
2022/08/04 04:42:06;;;;;;;22.52;12.85;;;;;;;25.07;47.12;99668.31;5033161;28;20071;-62
2022/08/04 04:44:48;;;;;;;23.50;13.32;;;;;;;25.12;47.25;99653.78;5049805;28;20556;-63
2022/08/04 04:47:40;;;;;;;21.50;13.15;;;;;;;25.26;46.64;99662.47;5051129;28;20052;-62
2022/08/04 04:50:14;;;;;;;18.42;11.75;;;;;;;25.49;46.93;99662.19;5051399;28;20044;-62
2022/08/04 04:52:50;;;;;;;23.50;12.35;;;;;;;25.56;46.24;99665.16;5051328;28;20122;-63
2022/08/04 04:55:26;;;;;;;20.08;12.60;;;;;;;25.77;46.30;99668.69;5034063;28;20086;-62
2022/08/04 04:57:56;;;;;;;25.65;11.88;;;;;;;25.84;46.06;99668.16;5031953;28;20498;-62
2022/08/04 05:01:00;;;;;;;26.90;12.68;;;;;;;25.70;45.46;99667.59;5050739;28;20502;-62
2022/08/04 05:03:49;;;;;;;20.20;12.38;;;;;;;25.55;46.05;99672.50;5050963;28;20037;-63
2022/08/04 05:06:26;;;;;;;24.27;11.50;;;;;;;25.50;46.46;99677.31;5004668;28;20052;-61
2022/08/04 05:08:51;;;;;;;19.45;10.68;;;;;;;25.50;47.13;99669.19;5050773;28;20041;-61
2022/08/04 05:11:23;;;;;;;17.17;11.10;;;;;;;25.47;46.99;99675.28;5050888;28;20075;-62
2022/08/04 05:13:52;;;;;;;22.00;11.07;;;;;;;25.41;46.54;99671.16;4999195;28;20049;-63
2022/08/04 05:16:19;;;;;;;25.80;11.43;;;;;;;25.42;47.45;99667.34;5033923;28;20060;-63
2022/08/04 05:18:48;;;;;;;23.92;11.00;;;;;;;25.44;47.21;99660.44;5050562;28;20056;-62
2022/08/04 05:21:25;;;;;;;20.27;12.15;;;;;;;25.42;46.68;99681.72;5032992;28;20037;-62
2022/08/04 05:23:55;;;;;;;25.70;12.27;;;;;;;25.40;48.63;99675.00;5034058;28;20128;-62
2022/08/04 05:26:25;;;;;;;25.73;11.13;;;;;;;25.37;47.38;99676.47;5050915;28;20048;-61
2022/08/04 05:28:56;;;;;;;21.80;10.75;;;;;;;25.34;47.42;99677.13;5033069;28;20227;-62
2022/08/04 05:31:33;;;;;;;18.02;10.55;;;;;;;25.25;46.87;99674.47;5049498;28;20048;-61
2022/08/04 05:34:14;;;;;;;19.42;10.30;;;;;;;25.17;46.87;99677.22;5050686;28;20076;-65
2022/08/04 05:36:43;;;;;;;14.48;10.63;;;;;;;25.10;46.76;99681.22;5066724;28;20482;-63
2022/08/04 05:39:19;;;;;;;15.20;9.40;;;;;;;25.10;46.98;99673.09;5056299;28;20044;-63
2022/08/04 05:41:45;;;;;;;24.48;9.52;;;;;;;25.05;47.16;99677.91;5039869;28;20063;-63
2022/08/04 05:44:11;;;;;;;16.02;9.40;;;;;;;25.09;47.65;99676.09;5054225;28;20143;-62
2022/08/04 05:46:37;;;;;;;15.38;8.75;;;;;;;25.10;46.32;99670.38;5056346;28;20045;-62
2022/08/04 05:49:04;;;;;;;13.95;8.80;;;;;;;25.10;46.57;99672.28;5073769;28;20067;-62
2022/08/04 05:51:30;;;;;;;19.40;8.65;;;;;;;25.10;46.30;99675.00;5074396;28;20051;-62
2022/08/04 05:53:57;;;;;;;12.45;8.43;;;;;;;25.10;46.05;99681.22;5054098;28;20076;-61
2022/08/04 05:56:23;;;;;;;9.63;8.35;;;;;;;25.08;45.56;99679.94;5056089;28;20044;-62
2022/08/04 05:58:50;;;;;;;12.65;8.38;;;;;;;25.09;45.28;99678.81;5039306;28;20390;-63
2022/08/04 06:01:17;;;;;;;12.48;7.90;;;;;;;25.03;45.35;99682.84;5056111;28;20043;-63
2022/08/04 06:03:42;;;;;;;12.80;7.85;;;;;;;25.01;44.55;99682.38;5071021;28;20675;-62
2022/08/04 06:06:11;;;;;;;12.38;7.03;;;;;;;25.01;44.43;99683.19;5046447;28;21245;-62
2022/08/04 06:08:37;;;;;;;13.07;6.23;;;;;;;25.01;43.70;99683.19;5019441;28;20458;-62
2022/08/04 06:11:05;;;;;;;18.52;6.85;;;;;;;25.03;43.57;99685.56;5053750;28;20828;-63
2022/08/04 06:13:36;;;;;;;9.18;6.05;;;;;;;25.04;43.21;99684.44;5033356;28;20048;-62
2022/08/04 06:16:04;;;;;;;9.88;5.97;;;;;;;25.03;43.10;99688.25;5074078;28;20097;-62
2022/08/04 06:18:30;;;;;;;15.23;6.30;;;;;;;25.07;43.21;99683.78;5039192;28;20052;-62
2022/08/04 06:20:57;;;;;;;12.52;5.80;;;;;;;25.06;42.70;99682.19;5021054;28;20044;-61
2022/08/04 06:23:27;;;;;;;11.57;5.35;;;;;;;25.08;42.43;99679.94;5055619;28;20048;-63
2022/08/04 06:25:55;;;;;;;8.23;5.20;;;;;;;25.07;41.35;99684.59;5073879;28;20036;-63
2022/08/04 06:28:22;;;;;;;10.20;5.05;;;;;;;25.09;40.65;99679.63;5073496;28;20051;-62
2022/08/04 06:30:49;;;;;;;9.27;4.95;;;;;;;25.10;40.52;99680.44;5073716;28;20036;-63
2022/08/04 06:33:35;;;;;;;9.10;4.95;;;;;;;25.13;40.06;99679.78;5070941;28;20518;-62
2022/08/04 06:36:03;;;;;;;9.35;4.82;;;;;;;25.19;40.03;99680.41;5055434;28;20098;-62
2022/08/04 06:38:34;;;;;;;7.55;4.43;;;;;;;25.26;39.31;99683.38;5073354;28;20058;-63
2022/08/04 06:41:02;;;;;;;8.48;4.75;;;;;;;25.31;38.99;99685.91;5054653;28;20090;-63
2022/08/04 06:43:28;;;;;;;9.10;4.63;;;;;;;25.38;38.75;99689.72;5032069;28;20102;-63
2022/08/04 06:45:55;;;;;;;9.13;5.13;;;;;;;25.39;39.31;99679.66;5015648;28;20037;-63
2022/08/04 06:48:21;;;;;;;7.47;4.40;;;;;;;25.50;38.99;99685.47;5033216;28;20057;-63
2022/08/04 06:50:48;;;;;;;6.00;3.45;;;;;;;25.52;38.21;99689.44;5031524;28;20516;-63
2022/08/04 06:53:14;;;;;;;6.35;3.95;;;;;;;25.52;38.59;99684.03;5021626;28;20112;-62
2022/08/04 06:55:42;;;;;;;4.65;4.05;;;;;;;25.52;38.25;99681.31;5034024;28;20464;-64
2022/08/04 06:58:08;;;;;;;8.02;4.68;;;;;;;25.55;37.72;99690.72;5051556;28;20053;-62
2022/08/04 07:00:35;;;;;;;7.72;4.82;;;;;;;25.55;37.99;99677.94;5041805;28;20040;-63
2022/08/04 07:03:01;;;;;;;5.90;4.43;;;;;;;25.61;37.89;99673.88;5053978;28;20044;-62
2022/08/04 07:05:27;;;;;;;9.68;4.35;;;;;;;25.66;37.60;99678.34;5072404;28;20082;-63
2022/08/04 07:07:53;;;;;;;7.10;4.78;;;;;;;25.70;37.82;99673.81;5072440;28;20121;-63
2022/08/04 07:10:20;;;;;;;5.45;4.10;;;;;;;25.80;37.88;99675.38;5072557;28;20087;-63
2022/08/04 07:12:46;;;;;;;8.48;4.70;;;;;;;25.89;38.00;99683.47;5054707;28;20044;-62
2022/08/04 07:15:13;;;;;;;6.80;4.45;;;;;;;25.95;38.32;99674.00;5054374;28;20446;-62
2022/08/04 07:17:39;;;;;;;9.68;4.63;;;;;;;25.92;38.39;99674.66;5054138;28;20487;-62
2022/08/04 07:20:05;;;;;;;7.00;5.07;;;;;;;25.98;38.65;99676.03;5072330;28;20098;-62
2022/08/04 07:22:32;;;;;;;11.80;5.20;;;;;;;26.00;38.12;99674.59;5072511;28;20531;-63
2022/08/04 07:24:58;;;;;;;7.63;5.05;;;;;;;25.99;37.56;99672.19;5054698;28;20041;-62
2022/08/04 07:27:24;;;;;;;6.65;4.80;;;;;;;26.07;37.88;99668.59;5072414;28;20048;-61
2022/08/04 07:29:51;;;;;;;7.75;5.00;;;;;;;26.10;38.30;99669.88;5054673;28;20446;-62
2022/08/04 07:32:19;;;;;;;6.57;4.60;;;;;;;26.14;37.52;99674.28;5072368;28;20044;-62
2022/08/04 07:34:46;;;;;;;9.98;5.13;;;;;;;26.15;37.71;99666.91;5054204;28;20123;-62
2022/08/04 07:37:11;;;;;;;6.80;3.95;;;;;;;26.12;35.62;99673.84;5072045;28;20436;-61
2022/08/04 07:39:37;;;;;;;4.78;4.07;;;;;;;26.06;34.85;99675.19;5053772;28;20052;-62
2022/08/04 07:42:03;;;;;;;4.40;3.78;;;;;;;26.05;35.50;99665.41;5070949;28;20041;-62
2022/08/04 07:44:30;;;;;;;4.93;4.35;;;;;;;26.08;34.89;99672.91;5053983;28;20041;-62
2022/08/04 07:46:56;;;;;;;5.00;4.50;;;;;;;26.14;35.41;99663.41;5053842;28;20041;-62
2022/08/04 07:49:22;;;;;;;8.68;4.70;;;;;;;26.16;34.96;99669.31;5071783;28;20422;-63
2022/08/04 07:51:49;;;;;;;6.35;4.82;;;;;;;26.26;35.72;99665.38;5037272;28;20523;-62
2022/08/04 07:54:16;;;;;;;5.18;4.47;;;;;;;26.27;35.44;99662.34;5071899;28;20056;-63
2022/08/04 07:56:42;;;;;;;6.13;4.22;;;;;;;26.23;34.39;99661.41;5053930;28;20037;-62
2022/08/04 07:59:08;;;;;;;5.05;4.40;;;;;;;26.17;34.87;99660.03;5036510;28;20513;-62
2022/08/04 08:01:35;;;;;;;7.80;4.65;;;;;;;26.19;35.23;99665.13;5070387;28;20135;-62
2022/08/04 08:04:01;;;;;;;9.27;5.05;;;;;;;26.14;35.11;99660.69;5071741;28;20053;-62
2022/08/04 08:06:28;;;;;;;5.75;4.80;;;;;;;26.19;35.16;99671.34;5070424;28;20045;-63
2022/08/04 08:08:55;;;;;;;7.30;5.30;;;;;;;26.21;35.73;99668.31;5071429;28;20102;-62
2022/08/04 08:11:20;;;;;;;6.57;4.90;;;;;;;26.19;35.91;99665.13;5070033;28;20041;-62
2022/08/04 08:13:46;;;;;;;7.40;5.38;;;;;;;26.17;35.97;99660.03;5036858;28;20059;-62
2022/08/04 08:16:13;;;;;;;8.18;5.22;;;;;;;26.25;36.08;99666.50;5037033;28;20066;-62
2022/08/04 08:18:38;;;;;;;7.28;5.47;;;;;;;26.28;34.98;99666.63;5069924;28;20517;-61
2022/08/04 08:21:06;;;;;;;6.60;5.18;;;;;;;26.33;35.58;99664.84;5071288;28;20052;-62
2022/08/04 08:23:33;;;;;;;6.00;5.38;;;;;;;26.32;36.03;99658.59;5070859;28;20139;-63
2022/08/04 08:25:59;;;;;;;6.15;5.32;;;;;;;26.38;35.57;99667.31;5053357;28;20048;-62
2022/08/04 08:28:25;;;;;;;7.00;5.20;;;;;;;26.35;35.03;99674.22;5052984;28;20051;-62
2022/08/04 08:30:51;;;;;;;5.13;4.60;;;;;;;26.40;35.13;99662.34;5071191;28;20382;-62
2022/08/04 08:33:18;;;;;;;8.38;5.35;;;;;;;26.45;34.97;99657.50;5070933;28;20119;-64
2022/08/04 08:35:51;;;;;;;8.18;5.18;;;;;;;26.43;34.90;99665.19;5070829;28;20040;-61
2022/08/04 08:38:21;;;;;;;5.85;5.20;;;;;;;26.37;34.94;99679.34;5052783;28;20048;-62
2022/08/04 08:40:53;;;;;;;5.90;5.10;;;;;;;26.25;35.17;99661.06;5069906;28;20044;-62
2022/08/04 08:43:30;;;;;;;5.95;5.03;;;;;;;26.14;34.96;99663.41;5052851;28;20052;-62
2022/08/04 08:46:15;;;;;;;6.30;5.05;;;;;;;26.15;34.67;99651.44;5070709;28;20513;-62
2022/08/04 08:49:18;;;;;;;6.35;4.75;;;;;;;26.17;35.03;99664.66;5070634;28;20079;-62
2022/08/04 08:51:50;;;;;;;7.75;4.88;;;;;;;26.22;35.19;99659.03;5071217;28;20087;-62
2022/08/04 08:54:54;;;;;;;6.95;4.75;;;;;;;26.26;34.92;99658.00;5070776;28;20055;-62
2022/08/04 08:57:41;;;;;;;6.43;5.05;;;;;;;26.32;35.01;99655.09;5069808;28;20037;-62
2022/08/04 09:00:22;;;;;;;6.90;4.82;;;;;;;26.44;34.98;99655.09;5071182;28;20341;-63
2022/08/04 09:03:11;;;;;;;7.53;5.20;;;;;;;26.45;34.74;99667.59;5053046;28;20138;-64
2022/08/04 09:06:08;;;;;;;8.32;5.10;;;;;;;26.50;34.37;99670.09;5052630;28;20131;-63
2022/08/04 09:08:33;;;;;;;5.97;5.00;;;;;;;26.55;34.10;99656.28;5070691;28;20114;-63
2022/08/04 09:11:23;;;;;;;6.80;4.85;;;;;;;26.49;34.17;99661.16;5071217;28;20497;-62
2022/08/04 09:14:26;;;;;;;5.93;5.32;;;;;;;26.50;34.37;99661.94;5035551;28;20560;-63
2022/08/04 09:16:56;;;;;;;5.93;5.10;;;;;;;26.56;33.50;99657.09;5039919;28;20493;-64
2022/08/04 09:19:31;;;;;;;5.43;4.88;;;;;;;26.54;33.77;99656.66;5056766;28;20056;-62
2022/08/04 09:22:01;;;;;;;5.93;5.32;;;;;;;26.40;33.89;99657.72;5074888;28;20028;-63
2022/08/04 09:24:54;;;;;;;10.75;5.70;;;;;;;26.36;33.91;99656.81;5057001;28;20128;-62
2022/08/04 09:27:27;;;;;;;6.35;5.47;;;;;;;26.43;33.47;99653.53;5074843;28;20040;-62
2022/08/04 09:30:05;;;;;;;7.15;5.40;;;;;;;26.56;33.74;99665.25;5074526;28;20384;-63
2022/08/04 09:32:31;;;;;;;6.25;5.28;;;;;;;26.64;33.75;99654.25;5073070;28;20394;-62
2022/08/04 09:35:25;;;;;;;6.18;5.63;;;;;;;26.74;34.13;99661.19;5074483;28;20135;-62
2022/08/04 09:38:03;;;;;;;6.18;5.30;;;;;;;26.86;33.14;99644.09;5074725;28;20131;-62
2022/08/04 09:40:47;;;;;;;6.35;4.95;;;;;;;26.95;33.46;99652.94;5074387;28;20494;-62
2022/08/04 09:43:16;;;;;;;6.15;5.55;;;;;;;27.10;32.94;99641.34;5073292;28;20048;-63
2022/08/04 09:46:12;;;;;;;6.90;5.43;;;;;;;27.28;33.07;99650.09;5074015;28;20059;-62
2022/08/04 09:48:47;;;;;;;8.60;5.72;;;;;;;27.56;32.21;99649.34;5072583;28;20064;-63
2022/08/04 09:51:44;;;;;;;9.48;5.50;;;;;;;27.86;31.53;99644.41;5074241;28;20041;-63
2022/08/04 09:54:32;;;;;;;6.07;5.32;;;;;;;28.15;32.02;99654.16;5073823;28;20494;-62
2022/08/04 09:57:13;;;;;;;10.90;5.55;;;;;;;28.24;31.61;99654.78;5074351;28;20043;-62
2022/08/04 10:00:00;;;;;;;6.20;5.28;;;;;;;28.11;30.97;99655.19;5073554;28;20083;-63
2022/08/04 10:02:31;;;;;;;8.43;5.68;;;;;;;27.93;31.22;99652.75;5072592;28;20123;-63
2022/08/04 10:04:58;;;;;;;9.82;5.28;;;;;;;27.81;31.28;99650.88;5055636;28;20051;-63
2022/08/04 10:07:53;;;;;;;8.57;5.18;;;;;;;27.76;31.66;99644.84;5055869;28;20055;-64
2022/08/04 10:10:56;;;;;;;7.60;5.60;;;;;;;27.54;32.18;99649.69;5073747;28;20488;-61
2022/08/04 10:13:40;;;;;;;6.43;5.07;;;;;;;27.46;32.15;99656.06;5055829;28;20052;-63
2022/08/04 10:16:08;;;;;;;6.05;5.25;;;;;;;27.48;32.29;99656.53;5055690;28;20033;-63
2022/08/04 10:18:56;;;;;;;8.02;5.22;;;;;;;27.45;32.61;99650.97;5073600;28;20045;-62
2022/08/04 10:21:26;;;;;;;8.18;5.25;;;;;;;27.53;32.11;99648.13;5055601;28;20036;-65
2022/08/04 10:24:06;;;;;;;6.78;5.93;;;;;;;27.61;31.98;99640.94;5072082;28;20074;-63
2022/08/04 10:26:52;;;;;;;6.47;5.82;;;;;;;27.78;32.25;99640.69;5073477;28;20439;-63
2022/08/04 10:29:29;;;;;;;5.90;5.30;;;;;;;27.89;32.05;99641.00;5073297;28;20139;-62
2022/08/04 10:32:35;;;;;;;5.97;5.47;;;;;;;28.10;32.10;99634.53;5055581;28;20508;-62
2022/08/04 10:35:14;;;;;;;9.43;5.50;;;;;;;28.29;31.53;99640.88;5023148;28;20101;-62
2022/08/04 10:38:05;;;;;;;7.43;5.78;;;;;;;28.32;31.37;99644.84;5055159;28;20078;-63
2022/08/04 10:40:35;;;;;;;7.15;5.95;;;;;;;28.33;31.67;99642.94;5072796;28;20044;-63
2022/08/04 10:43:08;;;;;;;6.32;5.65;;;;;;;28.26;31.05;99647.03;5038620;28;20044;-64
2022/08/04 10:45:44;;;;;;;11.90;5.90;;;;;;;28.25;31.70;99640.00;5055383;28;20064;-63
2022/08/04 10:48:33;;;;;;;9.05;5.85;;;;;;;28.33;30.83;99634.75;5038921;28;20118;-64
2022/08/04 10:51:18;;;;;;;7.93;5.85;;;;;;;28.34;30.72;99642.56;5038322;28;20041;-62
2022/08/04 10:53:46;;;;;;;7.78;5.78;;;;;;;28.37;30.39;99641.06;5038714;28;20044;-63
2022/08/04 10:56:21;;;;;;;6.60;5.90;;;;;;;28.38;30.41;99637.19;5055219;28;20477;-63
2022/08/04 10:58:59;;;;;;;9.07;5.57;;;;;;;28.42;30.33;99638.91;5054963;28;20048;-64
2022/08/04 11:01:55;;;;;;;8.77;5.70;;;;;;;28.41;30.74;99634.56;5055168;28;20075;-63
2022/08/04 11:04:25;;;;;;;7.47;6.30;;;;;;;28.42;30.70;99641.63;5026083;28;20048;-62
2022/08/04 11:06:52;;;;;;;10.68;6.22;;;;;;;28.45;31.06;99642.88;5038097;28;20051;-63
2022/08/04 11:09:18;;;;;;;6.75;6.10;;;;;;;28.55;31.07;99647.00;5055022;28;20068;-63
2022/08/04 11:11:55;;;;;;;7.55;6.60;;;;;;;28.44;31.13;99644.00;5054874;28;20037;-63
2022/08/04 11:14:26;;;;;;;14.73;7.07;;;;;;;28.35;30.77;99644.13;5054707;28;20036;-64
2022/08/04 11:17:00;;;;;;;7.97;6.45;;;;;;;28.25;30.91;99650.13;5054677;28;20068;-63
2022/08/04 11:19:47;;;;;;;8.38;6.60;;;;;;;28.21;31.29;99646.50;5054221;28;20537;-63
2022/08/04 11:22:22;;;;;;;10.40;7.47;;;;;;;28.29;31.38;99643.59;5054568;28;20064;-62
2022/08/04 11:25:19;;;;;;;9.05;6.22;;;;;;;28.37;31.70;99639.13;5054198;28;20041;-63
2022/08/04 11:27:48;;;;;;;12.02;6.90;;;;;;;28.44;31.42;99647.53;5045732;28;20052;-63
2022/08/04 11:30:14;;;;;;;8.07;6.43;;;;;;;28.47;30.69;99640.56;5072364;28;20596;-63
2022/08/04 11:32:50;;;;;;;9.75;6.50;;;;;;;28.55;31.33;99644.28;5072441;28;20044;-63
2022/08/04 11:36:03;;;;;;;8.48;6.53;;;;;;;28.63;30.88;99637.84;5053320;28;20488;-63
2022/08/04 11:39:10;;;;;;;11.68;6.90;;;;;;;28.68;31.19;99634.88;5071988;28;20143;-63
2022/08/04 11:41:47;;;;;;;13.20;7.63;;;;;;;28.72;31.35;99633.00;5071893;28;20155;-63
2022/08/04 11:44:40;;;;;;;11.38;6.72;;;;;;;28.80;31.61;99637.50;5071832;28;20076;-62
2022/08/04 11:47:10;;;;;;;10.50;6.88;;;;;;;28.87;30.97;99632.19;5071772;28;20056;-63
2022/08/04 11:49:42;;;;;;;9.68;6.78;;;;;;;28.96;30.84;99627.34;5053650;28;20056;-64
2022/08/04 11:52:10;;;;;;;11.10;6.95;;;;;;;29.14;31.00;99630.50;5072101;28;20039;-63
2022/08/04 11:54:37;;;;;;;9.40;7.07;;;;;;;29.26;30.71;99626.06;5071856;28;20131;-62
2022/08/04 11:57:03;;;;;;;12.20;7.50;;;;;;;29.37;30.29;99629.81;5071795;28;20062;-62
2022/08/04 11:59:30;;;;;;;7.90;6.80;;;;;;;29.41;30.04;99626.03;5070450;28;20044;-63
2022/08/04 12:02:28;;;;;;;10.80;7.50;;;;;;;29.31;30.73;99620.34;5053603;28;20063;-63
2022/08/04 12:04:59;;;;;;;12.35;7.63;;;;;;;29.25;31.34;99624.50;5028466;28;20048;-64
2022/08/04 12:07:47;;;;;;;10.10;7.25;;;;;;;29.23;31.48;99615.88;5071742;28;20047;-62
2022/08/04 12:10:25;;;;;;;18.02;8.38;;;;;;;29.13;31.67;99618.00;5070328;28;20745;-63